KLVM/LVM METAR and TAF weather

Enter ICAO airport designator
Station Type Date Time Source
KLVM METAR 2020/10/29 15:53 UTC NOAA

KLVM 291553Z AUTO 24019G27KT 10SM CLR 12/M02 A3008 RMK AO2 PK WND 24032/1459 SLP177 T01221022


Station Type Date Time Source
KLVM Decoded METAR 2020/10/29 15:53 UTC NOAA

LIVINGSTON MISSION FIELD, MT, United States (KLVM) 45-42N 110-26W 1418M
Oct 29, 2020 - 11:53 AM EDT / 2020.10.29 1553 UTC
Wind: from the WSW (240 degrees) at 22 MPH (19 KT) gusting to 31 MPH (27 KT):0
Visibility: 10 mile(s):0
Sky conditions: clear
Temperature: 54.0 F (12.2 C)
Dew Point: 28.0 F (-2.2 C)
Relative Humidity: 36%
Pressure (altimeter): 30.08 in. Hg (1018 hPa)
ob: KLVM 291553Z AUTO 24019G27KT 10SM CLR 12/M02 A3008 RMK AO2 PK WND 24032/1459 SLP177 T01221022
cycle: 16

Station Type Date Time Source
KLVM TAF 2020/10/29 12:24 UTC NOAA

TAF KLVM 291122Z 2912/3012 24024G35KT P6SM SCT150
FM291300 23029G48KT P6SM SCT150
FM292100 26020G30KT P6SM SCT150
FM300500 23017G25KT P6SM SCT150
FM301000 22020G33KT P6SM SCT150

Example: see airport list